Time;durP1;ratioP1;P1;durP2;ratioP2;P2;SDS_P1;SDS_P2;PMS_P1;PMS_P2;Temp;Humidity;BMP_temperature;BMP_pressure;BME280_temperature;BME280_humidity;BME280_pressure;Samples;Min_cycle;Max_cycle;Signal;HPM_P1;HPM_P2
2023/03/06 00:00:27;;;;;;;;;;;;;;;21.86;32.72;100868.06;7264407;19;153300;-56
2023/03/06 00:02:54;;;;;;;;;;;;;;;21.87;32.66;100861.28;7252462;19;155517;-57
2023/03/06 00:05:21;;;;;;;;;;;;;;;21.87;32.54;100866.91;7256685;19;153094;-55
2023/03/06 00:07:48;;;;;;;;;;;;;;;21.89;32.96;100866.63;7254858;19;154003;-55
2023/03/06 00:10:16;;;;;;;;;;;;;;;21.88;33.00;100864.94;7256960;19;155419;-56
2023/03/06 00:12:43;;;;;;;;;;;;;;;21.88;32.80;100856.50;7254587;19;153435;-56
2023/03/06 00:15:11;;;;;;;;;;;;;;;21.88;32.65;100862.97;7258377;19;154667;-56
2023/03/06 00:17:38;;;;;;;;;;;;;;;21.88;32.69;100860.16;7255515;19;154134;-56
2023/03/06 00:20:06;;;;;;;;;;;;;;;21.90;32.90;100857.00;7259560;19;152696;-56
2023/03/06 00:22:33;;;;;;;;;;;;;;;21.88;33.21;100853.69;7264156;19;154427;-56
2023/03/06 00:25:00;;;;;;;;;;;;;;;21.89;32.90;100849.72;7260493;19;153270;-56
2023/03/06 00:27:27;;;;;;;;;;;;;;;21.91;33.13;100850.22;7258945;19;154799;-55
2023/03/06 00:29:55;;;;;;;;;;;;;;;21.91;32.79;100853.88;7256743;19;153605;-56
2023/03/06 00:32:23;;;;;;;;;;;;;;;21.90;33.01;100845.75;7253942;19;152067;-56
2023/03/06 00:34:51;;;;;;;;;;;;;;;21.90;32.79;100831.69;7256580;19;152469;-56
2023/03/06 00:37:18;;;;;;;;;;;;;;;21.89;33.14;100833.69;7257572;19;153688;-56
2023/03/06 00:39:45;;;;;;;;;;;;;;;21.89;32.88;100838.47;7256035;19;154307;-56
2023/03/06 00:42:12;;;;;;;;;;;;;;;21.86;32.84;100831.50;7255604;19;154146;-56
2023/03/06 00:44:39;;;;;;;;;;;;;;;21.83;32.85;100836.94;7260785;19;153932;-56
2023/03/06 00:47:06;;;;;;;;;;;;;;;21.81;33.01;100833.59;7251410;19;153781;-55
2023/03/06 00:49:33;;;;;;;;;;;;;;;21.79;33.33;100819.88;7256075;19;152704;-55
2023/03/06 00:52:00;;;;;;;;;;;;;;;21.77;33.40;100815.72;7256118;19;154493;-55
2023/03/06 00:54:27;;;;;;;;;;;;;;;21.72;33.08;100819.47;7256566;19;153941;-55
2023/03/06 00:56:54;;;;;;;;;;;;;;;21.67;33.49;100822.41;7253661;19;154119;-57
2023/03/06 00:59:24;;;;;;;;;;;;;;;21.62;33.69;100819.75;7255264;19;153018;-55
2023/03/06 01:01:51;;;;;;;;;;;;;;;21.63;33.67;100812.97;7256758;19;153697;-57
2023/03/06 01:04:18;;;;;;;;;;;;;;;21.59;33.54;100814.75;7267771;19;153923;-54
2023/03/06 01:06:45;;;;;;;;;;;;;;;21.55;33.45;100810.91;7253834;19;153622;-55
2023/03/06 01:09:12;;;;;;;;;;;;;;;21.53;33.76;100804.81;7257754;19;153501;-55
2023/03/06 01:11:39;;;;;;;;;;;;;;;21.48;33.58;100807.75;7253563;19;154291;-57
2023/03/06 01:14:06;;;;;;;;;;;;;;;21.45;33.98;100806.38;7256932;19;152338;-57
2023/03/06 01:16:33;;;;;;;;;;;;;;;21.39;33.88;100809.66;7252521;19;154112;-57
2023/03/06 01:19:00;;;;;;;;;;;;;;;21.35;34.03;100806.63;7255148;19;154228;-57
2023/03/06 01:21:27;;;;;;;;;;;;;;;21.29;34.24;100799.47;7259419;19;153728;-57
2023/03/06 01:23:54;;;;;;;;;;;;;;;21.24;34.50;100799.59;7254471;19;154006;-57
2023/03/06 01:26:21;;;;;;;;;;;;;;;21.21;34.49;100800.22;7260606;19;154393;-55
2023/03/06 01:28:48;;;;;;;;;;;;;;;21.14;34.75;100794.19;7251526;19;153932;-55
2023/03/06 01:31:15;;;;;;;;;;;;;;;21.10;34.81;100790.34;7256121;19;153303;-55
2023/03/06 01:33:42;;;;;;;;;;;;;;;21.07;34.48;100788.16;7253997;19;153844;-56
2023/03/06 01:36:10;;;;;;;;;;;;;;;21.02;34.65;100777.88;7254794;19;154392;-55
2023/03/06 01:38:37;;;;;;;;;;;;;;;21.00;35.02;100782.13;7252661;19;153535;-55
2023/03/06 01:41:05;;;;;;;;;;;;;;;20.97;35.04;100778.00;7257011;19;155195;-55
2023/03/06 01:43:33;;;;;;;;;;;;;;;20.93;34.71;100776.97;7253749;19;152314;-55
2023/03/06 01:46:03;;;;;;;;;;;;;;;20.88;34.93;100768.66;7254329;19;152832;-55
2023/03/06 01:48:30;;;;;;;;;;;;;;;20.85;34.82;100764.47;7259317;19;155211;-55
2023/03/06 01:50:57;;;;;;;;;;;;;;;20.82;35.09;100764.28;7256088;19;152114;-55
2023/03/06 01:53:23;;;;;;;;;;;;;;;20.79;34.94;100759.31;7252708;19;153689;-55
2023/03/06 01:55:51;;;;;;;;;;;;;;;20.76;35.41;100762.72;7255059;19;154446;-56
2023/03/06 01:58:18;;;;;;;;;;;;;;;20.74;35.08;100768.66;7254989;19;153254;-56
2023/03/06 02:00:45;;;;;;;;;;;;;;;20.71;35.23;100760.06;7254469;19;153684;-56
2023/03/06 02:03:14;;;;;;;;;;;;;;;20.69;35.58;100767.94;7253431;19;156037;-56
2023/03/06 02:05:42;;;;;;;;;;;;;;;20.66;35.49;100760.16;7258130;19;153941;-56
2023/03/06 02:08:10;;;;;;;;;;;;;;;20.62;35.27;100759.97;7255214;19;153465;-57
2023/03/06 02:10:39;;;;;;;;;;;;;;;20.58;35.50;100758.91;7261276;19;155397;-56
2023/03/06 02:13:06;;;;;;;;;;;;;;;20.56;35.47;100754.75;7254185;19;152694;-56
2023/03/06 02:15:33;;;;;;;;;;;;;;;20.53;35.25;100759.03;7253510;19;153899;-56
2023/03/06 02:18:00;;;;;;;;;;;;;;;20.49;35.63;100751.56;7251971;19;153547;-56
2023/03/06 02:20:33;;;;;;;;;;;;;;;20.46;35.70;100741.78;7256039;19;153415;-56
2023/03/06 02:23:05;;;;;;;;;;;;;;;20.44;35.66;100746.03;7252223;19;153021;-57
2023/03/06 02:25:32;;;;;;;;;;;;;;;20.38;35.37;100748.13;7259502;19;153021;-56
2023/03/06 02:27:59;;;;;;;;;;;;;;;20.37;35.34;100749.25;7262398;19;156081;-56
2023/03/06 02:30:27;;;;;;;;;;;;;;;20.34;35.77;100747.09;7259571;19;154650;-56
2023/03/06 02:32:56;;;;;;;;;;;;;;;20.29;35.77;100731.16;7268017;19;153366;-56
2023/03/06 02:35:26;;;;;;;;;;;;;;;20.26;35.52;100734.56;7258146;19;155687;-56
2023/03/06 02:37:56;;;;;;;;;;;;;;;20.23;35.55;100732.41;7261531;19;153612;-56
2023/03/06 02:40:23;;;;;;;;;;;;;;;20.20;35.41;100735.00;7254824;19;154214;-56
2023/03/06 02:42:52;;;;;;;;;;;;;;;20.16;35.73;100723.56;7259472;19;154039;-56
2023/03/06 02:45:23;;;;;;;;;;;;;;;20.13;35.82;100726.97;7258810;19;152361;-56
2023/03/06 02:47:50;;;;;;;;;;;;;;;20.11;35.71;100723.66;7254041;19;152831;-56
2023/03/06 02:50:16;;;;;;;;;;;;;;;20.09;35.67;100730.72;7260509;19;154065;-56
2023/03/06 02:52:43;;;;;;;;;;;;;;;20.05;35.86;100718.47;7260747;19;153794;-56
2023/03/06 02:55:10;;;;;;;;;;;;;;;19.99;35.61;100715.75;7266257;19;153296;-55
2023/03/06 02:57:37;;;;;;;;;;;;;;;19.98;36.07;100716.91;7258425;19;153740;-56
2023/03/06 03:00:05;;;;;;;;;;;;;;;19.94;35.93;100713.03;7257011;19;154197;-56
2023/03/06 03:02:31;;;;;;;;;;;;;;;19.91;36.17;100719.28;7256854;19;154870;-56
2023/03/06 03:04:58;;;;;;;;;;;;;;;19.88;36.32;100711.50;7260480;19;153691;-56
2023/03/06 03:07:25;;;;;;;;;;;;;;;19.88;35.96;100707.88;7256946;19;154242;-56
2023/03/06 03:09:52;;;;;;;;;;;;;;;19.84;36.07;100704.84;7259538;19;154604;-56
2023/03/06 03:12:21;;;;;;;;;;;;;;;19.84;36.43;100701.22;7260682;19;154715;-56
2023/03/06 03:14:48;;;;;;;;;;;;;;;19.79;36.12;100701.31;7266356;19;154415;-56
2023/03/06 03:17:15;;;;;;;;;;;;;;;19.78;36.20;100696.84;7258146;19;152796;-55
2023/03/06 03:19:41;;;;;;;;;;;;;;;19.76;36.60;100699.13;7259865;19;155507;-55
2023/03/06 03:22:08;;;;;;;;;;;;;;;19.72;36.36;100693.28;7266111;19;155013;-55
2023/03/06 03:24:35;;;;;;;;;;;;;;;19.71;36.36;100688.03;7268783;19;152994;-55
2023/03/06 03:27:02;;;;;;;;;;;;;;;19.68;36.19;100689.44;7259502;19;153407;-55
2023/03/06 03:29:29;;;;;;;;;;;;;;;19.67;36.33;100686.97;7257451;19;155217;-55
2023/03/06 03:31:56;;;;;;;;;;;;;;;19.65;36.68;100678.03;7256529;19;154190;-55
2023/03/06 03:34:23;;;;;;;;;;;;;;;19.64;36.60;100685.59;7260643;19;153172;-55
2023/03/06 03:36:50;;;;;;;;;;;;;;;19.60;36.76;100678.97;7266529;19;153692;-55
2023/03/06 03:39:17;;;;;;;;;;;;;;;19.58;36.79;100672.81;7259897;19;153296;-55
2023/03/06 03:41:43;;;;;;;;;;;;;;;19.55;36.62;100670.63;7257585;19;153580;-55
2023/03/06 03:44:10;;;;;;;;;;;;;;;19.54;36.69;100668.97;7259142;19;154251;-55
2023/03/06 03:46:37;;;;;;;;;;;;;;;19.52;36.91;100662.88;7252032;19;154944;-55
2023/03/06 03:49:05;;;;;;;;;;;;;;;19.49;36.70;100657.84;7259010;19;153682;-55
2023/03/06 03:51:32;;;;;;;;;;;;;;;19.47;36.57;100661.00;7258837;19;154865;-55
2023/03/06 03:53:59;;;;;;;;;;;;;;;19.46;36.66;100664.09;7260875;19;154202;-55
2023/03/06 03:56:26;;;;;;;;;;;;;;;19.43;36.75;100662.75;7259655;19;154133;-55
2023/03/06 03:58:53;;;;;;;;;;;;;;;19.43;36.73;100671.16;7265651;19;152239;-55
2023/03/06 04:01:20;;;;;;;;;;;;;;;19.41;36.96;100662.19;7256827;19;153929;-55
2023/03/06 04:03:47;;;;;;;;;;;;;;;19.39;36.98;100660.84;7257998;19;152534;-55
2023/03/06 04:06:13;;;;;;;;;;;;;;;19.36;37.08;100650.22;7256564;19;154165;-55
2023/03/06 04:08:40;;;;;;;;;;;;;;;19.35;36.76;100655.00;7259155;19;153129;-55
2023/03/06 04:11:07;;;;;;;;;;;;;;;19.33;37.06;100648.06;7260873;19;153408;-55
2023/03/06 04:13:34;;;;;;;;;;;;;;;19.31;36.85;100650.31;7259477;19;154004;-55
2023/03/06 04:16:01;;;;;;;;;;;;;;;19.26;37.13;100654.03;7258751;19;154650;-55
2023/03/06 04:18:28;;;;;;;;;;;;;;;19.24;37.33;100639.53;7258833;19;154382;-55
2023/03/06 04:20:55;;;;;;;;;;;;;;;19.22;36.96;100635.34;7265081;19;153839;-55
2023/03/06 04:23:23;;;;;;;;;;;;;;;19.20;36.91;100632.03;7255626;19;154668;-55
2023/03/06 04:25:50;;;;;;;;;;;;;;;19.17;37.17;100625.06;7256723;19;152831;-54
2023/03/06 04:28:17;;;;;;;;;;;;;;;19.15;37.11;100613.38;7256207;19;153191;-55
2023/03/06 04:30:44;;;;;;;;;;;;;;;19.15;37.41;100615.31;7259800;19;153896;-55
2023/03/06 04:33:10;;;;;;;;;;;;;;;19.13;37.08;100615.63;7256572;19;153991;-54
2023/03/06 04:35:37;;;;;;;;;;;;;;;19.10;37.37;100607.84;7257396;19;154280;-54
2023/03/06 04:38:04;;;;;;;;;;;;;;;19.09;37.08;100609.81;7259760;19;153399;-55
2023/03/06 04:40:32;;;;;;;;;;;;;;;19.09;37.04;100604.22;7260051;19;154588;-55
2023/03/06 04:43:02;;;;;;;;;;;;;;;19.07;37.36;100594.47;7263223;19;153715;-55
2023/03/06 04:45:30;;;;;;;;;;;;;;;19.05;37.17;100596.72;7257957;19;154601;-55
2023/03/06 04:47:58;;;;;;;;;;;;;;;19.02;37.54;100594.56;7249988;19;154363;-55
2023/03/06 04:50:27;;;;;;;;;;;;;;;19.00;37.44;100585.63;7257581;19;154072;-55
2023/03/06 04:52:54;;;;;;;;;;;;;;;19.00;37.46;100585.63;7255834;19;154114;-55
2023/03/06 04:55:21;;;;;;;;;;;;;;;18.96;37.60;100588.22;7258727;19;154001;-55
2023/03/06 04:57:49;;;;;;;;;;;;;;;18.95;37.26;100580.94;7259059;19;153717;-55
2023/03/06 05:00:19;;;;;;;;;;;;;;;18.93;37.33;100580.44;7256335;19;152061;-55
2023/03/06 05:02:48;;;;;;;;;;;;;;;18.91;37.66;100588.28;7254011;19;153274;-54
2023/03/06 05:05:17;;;;;;;;;;;;;;;18.91;37.41;100581.84;7262982;19;152468;-55
2023/03/06 05:07:46;;;;;;;;;;;;;;;18.87;37.71;100595.66;7253951;19;153012;-55
2023/03/06 05:10:15;;;;;;;;;;;;;;;18.88;37.49;100593.69;7258156;19;153080;-55
2023/03/06 05:12:42;;;;;;;;;;;;;;;18.85;37.43;100592.31;7254201;19;154042;-54
2023/03/06 05:15:11;;;;;;;;;;;;;;;18.85;37.79;100595.09;7254766;19;154037;-55
2023/03/06 05:17:40;;;;;;;;;;;;;;;18.82;37.50;100589.28;7252430;19;153344;-55
2023/03/06 05:20:08;;;;;;;;;;;;;;;18.82;37.43;100584.53;7258511;19;154166;-56
2023/03/06 05:22:36;;;;;;;;;;;;;;;18.85;37.77;100591.50;7254105;19;153369;-55
2023/03/06 05:25:04;;;;;;;;;;;;;;;18.95;37.38;100580.09;7261799;19;153719;-55
2023/03/06 05:27:33;;;;;;;;;;;;;;;19.02;37.38;100583.34;7252276;19;153879;-54
2023/03/06 05:30:01;;;;;;;;;;;;;;;19.09;37.50;100579.00;7253229;19;153384;-54
2023/03/06 05:32:29;;;;;;;;;;;;;;;19.16;37.62;100586.19;7255441;19;153382;-54
2023/03/06 05:34:59;;;;;;;;;;;;;;;19.23;37.39;100578.19;7255840;19;154096;-54
2023/03/06 05:37:27;;;;;;;;;;;;;;;19.29;37.67;100571.38;7257063;19;153961;-54
2023/03/06 05:39:54;;;;;;;;;;;;;;;19.34;37.31;100569.31;7255682;19;154111;-54
2023/03/06 05:42:22;;;;;;;;;;;;;;;19.39;37.75;100565.59;7254923;19;153995;-54
2023/03/06 05:44:53;;;;;;;;;;;;;;;19.43;37.53;100569.41;7253318;19;154001;-54
2023/03/06 05:47:20;;;;;;;;;;;;;;;19.47;37.80;100556.47;7258552;19;153215;-55
2023/03/06 05:49:48;;;;;;;;;;;;;;;19.52;37.80;100554.41;7257181;19;153443;-54
2023/03/06 05:52:16;;;;;;;;;;;;;;;19.58;37.85;100543.09;7257408;19;154253;-54
2023/03/06 05:54:44;;;;;;;;;;;;;;;19.61;37.82;100534.91;7253556;19;154365;-55
2023/03/06 05:57:12;;;;;;;;;;;;;;;19.67;37.57;100549.63;7253073;19;154889;-54
2023/03/06 05:59:39;;;;;;;;;;;;;;;19.72;37.85;100535.50;7269808;19;154552;-56
2023/03/06 06:02:07;;;;;;;;;;;;;;;19.75;37.85;100538.53;7266919;19;155222;-56
2023/03/06 06:04:36;;;;;;;;;;;;;;;19.82;37.73;100532.47;7270261;19;154423;-54
2023/03/06 06:07:05;;;;;;;;;;;;;;;19.86;37.77;100533.50;7269357;19;154268;-56
2023/03/06 06:09:32;;;;;;;;;;;;;;;19.91;37.74;100528.63;7275817;19;153667;-56
2023/03/06 06:12:02;;;;;;;;;;;;;;;19.95;37.84;100526.84;7266006;19;154276;-56
2023/03/06 06:14:32;;;;;;;;;;;;;;;20.01;37.77;100533.16;7267846;19;156333;-57
2023/03/06 06:17:00;;;;;;;;;;;;;;;20.06;37.34;100538.66;7266811;19;154430;-57
2023/03/06 06:19:30;;;;;;;;;;;;;;;20.12;37.50;100533.78;7271325;19;153696;-56
2023/03/06 06:22:02;;;;;;;;;;;;;;;20.16;37.48;100540.41;7266610;19;154673;-56
2023/03/06 06:24:31;;;;;;;;;;;;;;;20.20;37.56;100536.66;7270709;19;152120;-56
2023/03/06 06:27:00;;;;;;;;;;;;;;;20.26;37.29;100535.38;7266827;19;152935;-56
2023/03/06 06:29:29;;;;;;;;;;;;;;;20.30;37.30;100533.66;7266812;19;152443;-56
2023/03/06 06:31:57;;;;;;;;;;;;;;;20.34;37.52;100531.88;7274299;19;154063;-56
2023/03/06 06:34:26;;;;;;;;;;;;;;;20.38;37.13;100540.47;7266942;19;153954;-56
2023/03/06 06:36:55;;;;;;;;;;;;;;;20.42;37.09;100525.50;7267504;19;153505;-56
2023/03/06 06:39:25;;;;;;;;;;;;;;;20.48;36.95;100533.78;7269986;19;152829;-56
2023/03/06 06:41:57;;;;;;;;;;;;;;;20.51;36.82;100522.75;7267083;19;153517;-56
2023/03/06 06:44:44;;;;;;;;;;;;;;;20.56;36.99;100524.59;7268268;19;154869;-56
2023/03/06 06:47:12;;;;;;;;;;;;;;;20.62;36.69;100523.34;7266216;19;153810;-55
2023/03/06 06:49:50;;;;;;;;;;;;;;;20.66;37.00;100522.38;7266947;19;154709;-55
2023/03/06 06:52:19;;;;;;;;;;;;;;;20.70;36.58;100520.59;7266075;19;153709;-55
2023/03/06 06:54:47;;;;;;;;;;;;;;;20.75;36.76;100516.81;7273095;19;154088;-55
2023/03/06 06:57:18;;;;;;;;;;;;;;;20.78;36.97;100508.56;7269425;19;155725;-55
2023/03/06 06:59:50;;;;;;;;;;;;;;;20.82;36.73;100501.16;7266932;19;154039;-56
2023/03/06 07:02:20;;;;;;;;;;;;;;;20.87;36.78;100500.19;7260069;19;155449;-56
2023/03/06 07:04:49;;;;;;;;;;;;;;;20.91;36.40;100503.19;7268098;19;153866;-55
2023/03/06 07:07:35;;;;;;;;;;;;;;;20.95;36.73;100504.19;7266514;19;153435;-54
2023/03/06 07:10:05;;;;;;;;;;;;;;;20.99;36.51;100497.59;7260514;19;154277;-55
2023/03/06 07:12:37;;;;;;;;;;;;;;;21.04;36.69;100496.63;7257371;19;153521;-55
2023/03/06 07:15:11;;;;;;;;;;;;;;;21.07;36.58;100498.81;7257944;19;154485;-55
2023/03/06 07:17:50;;;;;;;;;;;;;;;21.11;36.55;100495.06;7265785;19;153230;-56
2023/03/06 07:20:19;;;;;;;;;;;;;;;21.15;36.26;100486.81;7259167;19;154439;-55
2023/03/06 07:22:51;;;;;;;;;;;;;;;21.19;36.50;100482.22;7259144;19;152654;-55
2023/03/06 07:25:19;;;;;;;;;;;;;;;21.21;36.55;100482.72;7258147;19;152872;-55
2023/03/06 07:27:50;;;;;;;;;;;;;;;21.24;36.22;100485.72;7257418;19;153756;-54
2023/03/06 07:30:21;;;;;;;;;;;;;;;21.27;36.54;100490.69;7255011;19;152883;-55
2023/03/06 07:33:00;;;;;;;;;;;;;;;21.32;36.24;100494.50;7258153;19;153196;-55
2023/03/06 07:35:33;;;;;;;;;;;;;;;21.35;36.42;100496.66;7255529;19;153998;-55
2023/03/06 07:38:04;;;;;;;;;;;;;;;21.37;36.16;100495.19;7264859;19;153563;-55
2023/03/06 07:40:45;;;;;;;;;;;;;;;21.40;36.04;100494.50;7256026;19;154009;-55
2023/03/06 07:43:25;;;;;;;;;;;;;;;21.43;36.10;100488.25;7255751;19;152831;-55
2023/03/06 07:45:59;;;;;;;;;;;;;;;21.46;36.02;100487.59;7256989;19;154381;-55
2023/03/06 07:48:39;;;;;;;;;;;;;;;21.48;35.92;100479.69;7255762;19;152592;-55
2023/03/06 07:51:12;;;;;;;;;;;;;;;21.51;35.49;100475.38;7259912;19;154731;-55
2023/03/06 07:53:41;;;;;;;;;;;;;;;21.52;35.53;100475.06;7261610;19;154343;-55
2023/03/06 07:56:15;;;;;;;;;;;;;;;21.55;35.70;100471.59;7260039;19;154038;-55
2023/03/06 07:58:46;;;;;;;;;;;;;;;21.55;35.76;100468.78;7259776;19;154508;-55
2023/03/06 08:04:36;;;;;;;;;;;;;;;21.58;35.55;100456.03;7256104;19;153654;-55
2023/03/06 08:07:12;;;;;;;;;;;;;;;21.59;35.89;100454.88;7258405;19;153118;-56
2023/03/06 08:09:48;;;;;;;;;;;;;;;21.62;35.49;100457.06;7255388;19;154882;-56
2023/03/06 08:12:20;;;;;;;;;;;;;;;21.61;35.43;100447.81;7255345;19;153754;-56
2023/03/06 08:14:55;;;;;;;;;;;;;;;21.62;35.51;100446.63;7257726;19;154227;-56
2023/03/06 08:17:43;;;;;;;;;;;;;;;21.65;35.30;100450.78;7255487;19;154256;-56
2023/03/06 08:20:21;;;;;;;;;;;;;;;21.65;35.10;100447.97;7255339;19;153474;-56
2023/03/06 08:22:49;;;;;;;;;;;;;;;21.63;35.21;100451.09;7257131;19;153344;-56
2023/03/06 08:25:23;;;;;;;;;;;;;;;21.66;35.20;100441.19;7264314;19;153741;-56
2023/03/06 08:28:06;;;;;;;;;;;;;;;21.65;35.37;100448.78;7254763;19;152074;-55
2023/03/06 08:30:57;;;;;;;;;;;;;;;21.64;35.14;100447.13;7255140;19;153158;-55
2023/03/06 08:33:55;;;;;;;;;;;;;;;21.63;35.41;100442.66;7252079;19;155720;-55
2023/03/06 08:36:26;;;;;;;;;;;;;;;21.63;35.41;100444.63;7257220;19;153751;-55
2023/03/06 08:39:20;;;;;;;;;;;;;;;21.65;35.18;100436.72;7252883;19;153096;-55
2023/03/06 08:41:57;;;;;;;;;;;;;;;21.55;34.54;100431.41;7195864;19;157483;-54
2023/03/06 08:44:33;;;;;;;;;;;;;;;21.47;34.59;100427.44;7243717;19;153730;-54
2023/03/06 08:47:04;;;;;;;;;;;;;;;21.47;34.14;100432.22;7245742;19;153332;-55
2023/03/06 08:49:38;;;;;;;;;;;;;;;21.42;33.72;100430.38;7254362;19;153294;-54
2023/03/06 08:52:15;;;;;;;;;;;;;;;21.43;33.81;100431.22;7249725;19;153959;-54
2023/03/06 08:54:51;;;;;;;;;;;;;;;21.41;33.71;100433.50;7251662;19;153941;-54
2023/03/06 08:57:35;;;;;;;;;;;;;;;21.41;33.55;100437.16;7253128;19;152696;-54
2023/03/06 09:00:07;;;;;;;;;;;;;;;21.39;33.57;100431.06;7252359;19;153593;-54
2023/03/06 09:02:39;;;;;;;;;;;;;;;21.37;33.15;100440.94;7256523;19;154219;-55
2023/03/06 09:05:11;;;;;;;;;;;;;;;21.37;33.38;100430.53;7257636;19;153139;-54
2023/03/06 09:07:43;;;;;;;;;;;;;;;21.36;33.06;100428.88;7253212;19;153745;-54
2023/03/06 09:10:13;;;;;;;;;;;;;;;21.35;33.15;100430.03;7254785;19;154531;-54
2023/03/06 09:12:42;;;;;;;;;;;;;;;21.36;33.42;100426.06;7261035;19;153274;-54
2023/03/06 09:15:23;;;;;;;;;;;;;;;21.37;33.26;100429.72;7254157;19;152908;-54
2023/03/06 09:17:53;;;;;;;;;;;;;;;21.37;33.08;100422.09;7254800;19;153885;-54
2023/03/06 09:20:25;;;;;;;;;;;;;;;21.38;33.06;100420.13;7257805;19;153615;-54
2023/03/06 09:22:59;;;;;;;;;;;;;;;21.39;33.44;100419.81;7243199;19;154060;-54
2023/03/06 09:25:37;;;;;;;;;;;;;;;21.40;33.27;100415.00;7248587;19;155558;-57
2023/03/06 09:28:16;;;;;;;;;;;;;;;21.40;32.96;100413.00;7256293;19;153826;-54
2023/03/06 09:31:10;;;;;;;;;;;;;;;21.41;32.93;100405.41;7250521;19;154825;-54
2023/03/06 09:33:45;;;;;;;;;;;;;;;21.42;33.39;100402.28;7262680;19;153601;-54
2023/03/06 09:36:16;;;;;;;;;;;;;;;21.44;33.29;100399.94;7254618;19;154715;-53
2023/03/06 09:38:44;;;;;;;;;;;;;;;21.46;33.24;100392.03;7255478;19;154667;-55
2023/03/06 09:41:14;;;;;;;;;;;;;;;21.46;33.17;100391.19;7257629;19;154602;-55
2023/03/06 09:43:44;;;;;;;;;;;;;;;21.49;33.12;100384.91;7252073;19;154387;-55
2023/03/06 09:46:25;;;;;;;;;;;;;;;21.48;33.37;100389.75;7249024;19;153146;-55
2023/03/06 09:49:51;;;;;;;;;;;;;;;21.49;33.10;100382.94;7255615;19;153978;-55
2023/03/06 09:52:37;;;;;;;;;;;;;;;21.50;33.11;100376.16;7249595;19;155181;-56
2023/03/06 09:55:13;;;;;;;;;;;;;;;21.52;32.91;100376.69;7253043;19;153274;-55
2023/03/06 09:57:42;;;;;;;;;;;;;;;21.53;32.84;100369.06;7260705;19;154398;-55
2023/03/06 10:00:13;;;;;;;;;;;;;;;21.53;33.03;100369.88;7254209;19;153539;-55
2023/03/06 10:02:44;;;;;;;;;;;;;;;21.53;33.21;100371.88;7255382;19;155638;-55
2023/03/06 10:05:14;;;;;;;;;;;;;;;21.54;32.78;100370.69;7253694;19;154394;-55
2023/03/06 10:07:44;;;;;;;;;;;;;;;21.52;32.80;100373.88;7254464;19;154098;-55
2023/03/06 10:10:14;;;;;;;;;;;;;;;21.53;32.58;100366.25;7252918;19;153679;-56
2023/03/06 10:12:47;;;;;;;;;;;;;;;21.52;33.02;100373.88;7251354;19;152834;-55
2023/03/06 10:15:16;;;;;;;;;;;;;;;21.53;32.76;100364.25;7251260;19;153856;-55
2023/03/06 10:17:44;;;;;;;;;;;;;;;21.50;32.75;100361.28;7253782;19;152873;-56
2023/03/06 10:20:14;;;;;;;;;;;;;;;21.50;32.97;100366.91;7259124;19;154283;-55
2023/03/06 10:22:44;;;;;;;;;;;;;;;21.47;32.57;100350.72;7201803;19;158210;-55
2023/03/06 10:25:27;;;;;;;;;;;;;;;21.42;32.56;100356.47;7254021;19;153898;-55
2023/03/06 10:27:57;;;;;;;;;;;;;;;21.42;32.93;100359.28;7249605;19;153709;-55
2023/03/06 10:30:27;;;;;;;;;;;;;;;21.42;32.83;100362.09;7250193;19;155069;-55
2023/03/06 10:32:54;;;;;;;;;;;;;;;21.34;32.96;100358.13;7249994;19;154811;-56
2023/03/06 10:35:27;;;;;;;;;;;;;;;21.33;32.67;100350.03;7254962;19;153530;-56
2023/03/06 10:37:59;;;;;;;;;;;;;;;21.29;32.75;100345.06;7252713;19;154216;-57
2023/03/06 10:40:29;;;;;;;;;;;;;;;21.27;32.77;100338.09;7252754;19;154144;-55
2023/03/06 10:42:56;;;;;;;;;;;;;;;21.24;33.17;100339.59;7260591;19;153396;-55
2023/03/06 10:45:40;;;;;;;;;;;;;;;21.24;33.15;100339.59;7246081;19;154017;-56
2023/03/06 10:48:17;;;;;;;;;;;;;;;21.20;32.92;100326.53;7257851;19;152510;-56
2023/03/06 10:50:44;;;;;;;;;;;;;;;21.21;33.17;100322.59;7256058;19;153685;-57
2023/03/06 10:53:14;;;;;;;;;;;;;;;21.20;32.82;100320.91;7255466;19;154703;-55
2023/03/06 10:55:49;;;;;;;;;;;;;;;21.17;33.05;100319.59;7258797;19;152043;-55
2023/03/06 10:58:17;;;;;;;;;;;;;;;21.10;32.82;100324.00;7257345;19;154577;-55
2023/03/06 11:00:44;;;;;;;;;;;;;;;21.07;33.22;100311.47;7257853;19;154600;-54
2023/03/06 11:03:13;;;;;;;;;;;;;;;21.07;33.39;100311.47;7260575;19;154976;-55
2023/03/06 11:05:51;;;;;;;;;;;;;;;21.08;33.34;100318.72;7250000;19;153009;-55
2023/03/06 11:08:21;;;;;;;;;;;;;;;21.05;32.98;100318.53;7258643;19;151951;-55
2023/03/06 11:10:51;;;;;;;;;;;;;;;21.05;33.15;100313.75;7256655;19;154157;-54
2023/03/06 11:13:20;;;;;;;;;;;;;;;21.05;33.35;100313.75;7259235;19;153765;-55
2023/03/06 11:15:55;;;;;;;;;;;;;;;21.04;33.38;100311.25;7256605;19;153926;-56
2023/03/06 11:18:26;;;;;;;;;;;;;;;21.04;33.45;100311.25;7260093;19;154393;-55
2023/03/06 11:20:54;;;;;;;;;;;;;;;21.05;33.69;100305.31;7257757;19;153183;-56
2023/03/06 11:23:24;;;;;;;;;;;;;;;21.06;33.88;100306.16;7260987;19;153003;-55
2023/03/06 11:25:52;;;;;;;;;;;;;;;21.08;33.53;100298.22;7259321;19;153613;-55
2023/03/06 11:28:23;;;;;;;;;;;;;;;21.09;33.70;100297.91;7263332;19;154155;-56
2023/03/06 11:30:53;;;;;;;;;;;;;;;21.10;33.48;100298.72;7255177;19;154227;-55
2023/03/06 11:33:26;;;;;;;;;;;;;;;21.13;33.49;100292.47;7255568;19;153677;-55
2023/03/06 11:35:56;;;;;;;;;;;;;;;21.15;33.74;100284.56;7259431;19;152252;-55
2023/03/06 11:38:32;;;;;;;;;;;;;;;21.16;33.64;100287.06;7256285;19;153479;-53
2023/03/06 11:41:01;;;;;;;;;;;;;;;21.16;33.29;100289.84;7259346;19;153207;-54
2023/03/06 11:43:29;;;;;;;;;;;;;;;21.17;33.70;100280.25;7257966;19;153905;-55
2023/03/06 11:45:58;;;;;;;;;;;;;;;21.19;33.23;100277.13;7253319;19;154068;-54
2023/03/06 11:48:28;;;;;;;;;;;;;;;21.19;33.24;100274.31;7259349;19;153335;-54
2023/03/06 11:51:01;;;;;;;;;;;;;;;21.20;33.66;100271.19;7256675;19;153869;-54
2023/03/06 11:53:32;;;;;;;;;;;;;;;21.19;33.63;100266.72;7252329;19;154690;-54
2023/03/06 11:56:02;;;;;;;;;;;;;;;21.19;33.38;100269.53;7256668;19;152693;-54
2023/03/06 11:58:32;;;;;;;;;;;;;;;21.19;33.05;100263.06;7258777;19;155118;-54
2023/03/06 12:01:03;;;;;;;;;;;;;;;21.18;33.54;100256.63;7255973;19;155445;-54
2023/03/06 12:03:33;;;;;;;;;;;;;;;21.19;33.32;100252.66;7260767;19;153848;-54
2023/03/06 12:06:03;;;;;;;;;;;;;;;21.19;33.65;100249.84;7256397;19;152282;-54
2023/03/06 12:08:35;;;;;;;;;;;;;;;21.20;33.54;100242.25;7256134;19;154052;-55
2023/03/06 12:11:08;;;;;;;;;;;;;;;21.18;33.46;100238.94;7266589;19;153879;-55
2023/03/06 12:13:39;;;;;;;;;;;;;;;21.16;33.16;100250.53;7257878;19;153379;-53
2023/03/06 12:16:08;;;;;;;;;;;;;;;21.16;33.12;100232.84;7256018;19;153418;-54
2023/03/06 12:18:38;;;;;;;;;;;;;;;21.12;33.13;100240.25;7258582;19;154375;-54
2023/03/06 12:21:07;;;;;;;;;;;;;;;21.12;32.98;100229.00;7257109;19;154472;-56
2023/03/06 12:23:34;;;;;;;;;;;;;;;21.10;33.21;100226.53;7257933;19;153633;-54
2023/03/06 12:26:08;;;;;;;;;;;;;;;21.10;33.32;100223.72;7256449;19;153797;-54
2023/03/06 12:28:38;;;;;;;;;;;;;;;21.11;33.06;100219.75;7256411;19;154416;-55
2023/03/06 12:31:14;;;;;;;;;;;;;;;21.10;33.28;100214.47;7254323;19;153764;-54
2023/03/06 12:33:44;;;;;;;;;;;;;;;21.03;33.17;100212.13;7263397;19;153629;-54
2023/03/06 12:36:14;;;;;;;;;;;;;;;21.03;33.21;100202.91;7258644;19;153040;-55
2023/03/06 12:38:45;;;;;;;;;;;;;;;21.01;33.05;100199.59;7257227;19;153836;-55
2023/03/06 12:41:15;;;;;;;;;;;;;;;21.02;33.24;100210.50;7257198;19;153916;-55
2023/03/06 12:43:44;;;;;;;;;;;;;;;21.00;33.13;100195.94;7257359;19;153753;-55
2023/03/06 12:46:14;;;;;;;;;;;;;;;21.00;33.60;100189.50;7255792;19;153562;-55